Terminal Aerodrome Forecast
Issued by NWS Twin Cities, MN

Home | Current Version | Previous Version | Text Only | Print | Product List | Glossary Off
Versions: 1 2 3 4 5 6 7 8 9 10 11 12 13 14

000
FTUS43 KMPX 151728
TAFEAU
TAF
KEAU 151728Z 1518/1618 30010KT P6SM BKN025
      TEMPO 1518/1520 BKN015
     FM152000 29010KT P6SM SCT045
     FM160100 24003KT P6SM BKN100
     FM160900 26003KT P6SM SKC=

USA.gov is the U.S. government's official web portal to all federal, state and local government web resources and services.